createdAt,value
2022-11-20T00:01:22.018Z,-7.54
2022-11-20T00:03:48.581Z,-7.55
2022-11-20T00:06:17.999Z,-7.56
2022-11-20T00:08:45.438Z,-7.57
2022-11-20T00:11:17.617Z,-7.55
2022-11-20T00:13:45.654Z,-7.55
2022-11-20T00:16:16.232Z,-7.49
2022-11-20T00:18:43.420Z,-7.46
2022-11-20T00:21:15.581Z,-7.46
2022-11-20T00:23:43.167Z,-7.44
2022-11-20T00:26:13.441Z,-7.44
2022-11-20T00:28:40.257Z,-7.43
2022-11-20T00:31:09.375Z,-7.41
2022-11-20T00:33:36.105Z,-7.39
2022-11-20T00:36:04.836Z,-7.40
2022-11-20T00:38:32.554Z,-7.42
2022-11-20T00:41:00.497Z,-7.44
2022-11-20T00:43:27.708Z,-7.46
2022-11-20T00:46:02.064Z,-7.46
2022-11-20T00:48:29.067Z,-7.46
2022-11-20T00:50:56.346Z,-7.50
2022-11-20T00:53:23.198Z,-7.52
2022-11-20T00:56:05.915Z,-7.52
2022-11-20T00:58:35.154Z,-7.48
2022-11-20T01:01:04.250Z,-7.52
2022-11-20T01:03:36.208Z,-7.42
2022-11-20T01:06:04.515Z,-7.47
2022-11-20T01:08:36.093Z,-7.47
2022-11-20T01:11:04.823Z,-7.44
2022-11-20T01:13:38.303Z,-7.41
2022-11-20T01:16:14.822Z,-7.41
2022-11-20T01:18:44.027Z,-7.39
2022-11-20T01:21:17.311Z,-7.38
2022-11-20T01:23:45.056Z,-7.36
2022-11-20T01:26:14.336Z,-7.34
2022-11-20T01:28:42.343Z,-7.35
2022-11-20T01:31:32.128Z,-7.35
2022-11-20T01:34:01.476Z,-7.38
2022-11-20T01:36:30.387Z,-7.42
2022-11-20T01:38:59.753Z,-7.39
2022-11-20T01:41:46.975Z,-7.41
2022-11-20T01:44:16.206Z,-7.41
2022-11-20T01:47:05.610Z,-7.42
2022-11-20T01:49:38.484Z,-7.44
2022-11-20T01:52:11.620Z,-7.46
2022-11-20T01:54:48.246Z,-7.46
2022-11-20T01:57:16.433Z,-7.46
2022-11-20T01:59:48.901Z,-7.41
2022-11-20T02:02:15.787Z,-7.43
2022-11-20T02:04:42.213Z,-7.46
2022-11-20T02:07:09.480Z,-7.46
2022-11-20T02:09:36.058Z,-7.46
2022-11-20T02:12:03.791Z,-7.43
2022-11-20T02:14:30.499Z,-7.45
2022-11-20T02:16:58.288Z,-7.46
2022-11-20T02:19:28.728Z,-7.46
2022-11-20T02:22:11.310Z,-7.44
2022-11-20T02:24:37.964Z,-7.47
2022-11-20T02:27:13.444Z,-7.46
2022-11-20T02:29:54.466Z,-7.45
2022-11-20T02:32:29.813Z,-7.48
2022-11-20T02:34:56.555Z,-7.47
2022-11-20T02:37:24.072Z,-7.50
2022-11-20T02:39:52.652Z,-7.54
2022-11-20T02:42:19.849Z,-7.56
2022-11-20T02:44:46.407Z,-7.57
2022-11-20T02:47:13.059Z,-7.61
2022-11-20T02:49:39.651Z,-7.62
2022-11-20T02:52:06.176Z,-7.60
2022-11-20T02:54:32.694Z,-7.65
2022-11-20T02:56:59.276Z,-7.65
2022-11-20T02:59:25.771Z,-7.67
2022-11-20T03:01:52.297Z,-7.68
2022-11-20T03:04:18.886Z,-7.68
2022-11-20T03:06:45.487Z,-7.68
2022-11-20T03:09:12.290Z,-7.69
2022-11-20T03:11:38.791Z,-7.69
2022-11-20T03:14:06.665Z,-7.68
2022-11-20T03:16:33.853Z,-7.68
2022-11-20T03:19:00.966Z,-7.67
2022-11-20T03:21:27.521Z,-7.68
2022-11-20T03:23:55.250Z,-7.73
2022-11-20T03:26:25.216Z,-7.76
2022-11-20T03:28:54.335Z,-7.77
2022-11-20T03:31:23.808Z,-7.80
2022-11-20T03:33:51.188Z,-7.80
2022-11-20T03:36:19.818Z,-7.78
2022-11-20T03:38:46.387Z,-7.82
2022-11-20T03:41:22.100Z,-7.86
2022-11-20T03:43:50.736Z,-7.88
2022-11-20T03:46:17.805Z,-7.88
2022-11-20T03:48:50.144Z,-7.90
2022-11-20T03:51:23.822Z,-7.97
2022-11-20T03:53:52.454Z,-8.04
2022-11-20T03:56:22.169Z,-8.05
2022-11-20T03:58:48.964Z,-8.03
2022-11-20T04:01:21.028Z,-8.04
2022-11-20T04:03:48.138Z,-8.07
2022-11-20T04:06:18.653Z,-8.08
2022-11-20T04:08:49.663Z,-8.11
2022-11-20T04:11:24.226Z,-8.11
2022-11-20T04:14:02.078Z,-8.13
2022-11-20T04:16:31.915Z,-8.11
2022-11-20T04:19:00.748Z,-8.12
2022-11-20T04:21:28.057Z,-8.12
2022-11-20T04:23:55.345Z,-8.12
2022-11-20T04:26:23.703Z,-8.11
2022-11-20T04:28:50.650Z,-8.14
2022-11-20T04:31:21.334Z,-8.14
2022-11-20T04:33:47.872Z,-8.14
2022-11-20T04:36:20.151Z,-8.14
2022-11-20T04:38:51.345Z,-8.16
2022-11-20T04:41:22.207Z,-8.18
2022-11-20T04:43:54.171Z,-8.17
2022-11-20T04:46:21.708Z,-8.18
2022-11-20T04:48:48.939Z,-8.19
2022-11-20T04:51:15.938Z,-8.21
2022-11-20T04:53:43.394Z,-8.22
2022-11-20T04:56:12.517Z,-8.22
2022-11-20T04:58:39.636Z,-8.23
2022-11-20T05:01:10.109Z,-8.22
2022-11-20T05:03:42.059Z,-8.25
2022-11-20T05:06:11.065Z,-8.27
2022-11-20T05:08:37.954Z,-8.28
2022-11-20T05:11:08.940Z,-8.30
2022-11-20T05:13:35.758Z,-8.31
2022-11-20T05:16:06.566Z,-8.32
2022-11-20T05:18:34.900Z,-8.33
2022-11-20T05:21:01.661Z,-8.33
2022-11-20T05:23:30.099Z,-8.34
2022-11-20T05:25:59.357Z,-8.36
2022-11-20T05:28:27.979Z,-8.36
2022-11-20T05:30:54.766Z,-8.38
2022-11-20T05:33:21.795Z,-8.39
2022-11-20T05:35:49.471Z,-8.41
2022-11-20T05:38:16.578Z,-8.44
2022-11-20T05:40:43.190Z,-8.45
2022-11-20T05:43:09.699Z,-8.47
2022-11-20T05:45:36.305Z,-8.48
2022-11-20T05:48:02.895Z,-8.50
2022-11-20T05:50:29.461Z,-8.51
2022-11-20T05:52:56.161Z,-8.51
2022-11-20T05:55:22.712Z,-8.51
2022-11-20T05:57:49.187Z,-8.53
2022-11-20T06:00:16.188Z,-8.56
2022-11-20T06:02:42.891Z,-8.54
2022-11-20T06:05:09.605Z,-8.53
2022-11-20T06:07:36.244Z,-8.56
2022-11-20T06:10:03.033Z,-8.60
2022-11-20T06:12:29.795Z,-8.66
2022-11-20T06:14:56.312Z,-8.66
2022-11-20T06:17:22.780Z,-8.64
2022-11-20T06:19:49.281Z,-8.63
2022-11-20T06:22:15.966Z,-8.60
2022-11-20T06:24:42.453Z,-8.54
2022-11-20T06:27:09.103Z,-8.49
2022-11-20T06:29:35.859Z,-8.47
2022-11-20T06:32:02.686Z,-8.41
2022-11-20T06:34:29.121Z,-8.42
2022-11-20T06:36:55.664Z,-8.43
2022-11-20T06:39:22.428Z,-8.42
2022-11-20T06:41:49.090Z,-8.40
2022-11-20T06:44:15.450Z,-8.41
2022-11-20T06:46:42.010Z,-8.38
2022-11-20T06:49:08.489Z,-8.35
2022-11-20T06:51:34.979Z,-8.35
2022-11-20T06:54:02.081Z,-8.35
2022-11-20T06:56:29.084Z,-8.33
2022-11-20T06:58:55.529Z,-8.34
2022-11-20T07:01:22.160Z,-8.31
2022-11-20T07:03:54.455Z,-8.28
2022-11-20T07:06:21.338Z,-8.24
2022-11-20T07:08:48.060Z,-8.24
2022-11-20T07:11:14.634Z,-8.22
2022-11-20T07:13:41.097Z,-8.19
2022-11-20T07:16:09.010Z,-8.18
2022-11-20T07:18:36.154Z,-8.11
2022-11-20T07:21:09.040Z,-8.08
2022-11-20T07:23:35.611Z,-8.01
2022-11-20T07:26:09.894Z,-7.98
2022-11-20T07:28:36.937Z,-7.93
2022-11-20T07:31:04.174Z,-7.86
2022-11-20T07:33:30.679Z,-7.80
2022-11-20T07:35:59.933Z,-7.71
2022-11-20T07:38:26.436Z,-7.58
2022-11-20T07:40:57.401Z,-7.42
2022-11-20T07:43:24.956Z,-7.34
2022-11-20T07:45:51.655Z,-7.23
2022-11-20T07:48:18.181Z,-7.18
2022-11-20T07:50:44.703Z,-7.10
2022-11-20T07:53:11.409Z,-7.02
2022-11-20T07:55:37.909Z,-6.93
2022-11-20T07:58:04.412Z,-6.86
2022-11-20T08:00:31.005Z,-6.77
2022-11-20T08:02:57.664Z,-6.67
2022-11-20T08:05:24.305Z,-6.54
2022-11-20T08:07:50.856Z,-6.42
2022-11-20T08:10:17.499Z,-6.29
2022-11-20T08:13:11.176Z,-6.18
2022-11-20T08:15:41.124Z,-6.03
2022-11-20T08:21:03.147Z,-5.79
2022-11-20T08:23:29.585Z,-5.70
2022-11-20T08:25:56.167Z,-5.58
2022-11-20T08:28:22.839Z,-5.35
2022-11-20T08:30:51.040Z,-5.20
2022-11-20T08:33:18.612Z,-5.01
2022-11-20T08:35:45.293Z,-4.88
2022-11-20T08:38:11.848Z,-4.69
2022-11-20T08:40:38.348Z,-4.43
2022-11-20T08:43:05.418Z,-4.26
2022-11-20T08:45:34.531Z,-4.08
2022-11-20T08:48:03.884Z,-3.87
2022-11-20T08:50:33.115Z,-3.48
2022-11-20T08:53:06.809Z,-2.61
2022-11-20T08:55:34.000Z,-2.24
2022-11-20T08:58:05.351Z,-1.67
2022-11-20T09:00:33.299Z,-1.14
2022-11-20T09:03:01.820Z,-0.75
2022-11-20T09:05:28.671Z,-0.34
2022-11-20T09:07:59.017Z,-0.13
2022-11-20T09:10:26.112Z,-0.08
2022-11-20T09:12:53.445Z,-0.11
2022-11-20T09:15:20.289Z,0.29
2022-11-20T09:17:59.128Z,0.49
2022-11-20T09:20:26.777Z,0.63
2022-11-20T09:23:36.854Z,0.70
2022-11-20T09:26:13.222Z,1.36
2022-11-20T09:28:40.244Z,1.24
2022-11-20T09:31:07.642Z,1.13
2022-11-20T09:33:34.183Z,1.34
2022-11-20T09:36:00.774Z,1.45
2022-11-20T09:38:27.332Z,1.38
2022-11-20T09:41:02.453Z,1.18
2022-11-20T09:43:52.232Z,0.90
2022-11-20T09:46:26.765Z,0.62
2022-11-20T09:49:02.521Z,0.52
2022-11-20T09:51:54.800Z,0.52
2022-11-20T09:54:24.125Z,0.52
2022-11-20T09:57:03.839Z,0.29
2022-11-20T09:59:43.464Z,0.14
2022-11-20T10:02:23.562Z,0.09
2022-11-20T10:04:59.909Z,0.00
2022-11-20T10:07:56.326Z,-0.10
2022-11-20T10:10:52.286Z,-0.11
2022-11-20T10:13:51.476Z,-0.09
2022-11-20T10:16:55.282Z,-0.18
2022-11-20T10:19:58.849Z,-0.14
2022-11-20T10:22:44.104Z,-0.13
2022-11-20T10:25:20.462Z,-0.04
2022-11-20T10:28:08.749Z,-0.08
2022-11-20T10:30:41.589Z,-0.14
2022-11-20T10:33:18.537Z,-0.21
2022-11-20T10:35:51.898Z,-0.17
2022-11-20T10:38:24.684Z,-0.11
2022-11-20T10:41:21.782Z,-0.01
2022-11-20T10:43:51.803Z,0.13
2022-11-20T10:46:22.739Z,0.14
2022-11-20T10:48:50.589Z,0.23
2022-11-20T10:51:32.659Z,0.18
2022-11-20T10:53:59.100Z,0.38
2022-11-20T10:56:50.195Z,0.24
2022-11-20T10:59:39.618Z,0.19
2022-11-20T11:02:21.643Z,0.10
2022-11-20T11:04:53.871Z,0.15
2022-11-20T11:07:26.504Z,0.25
2022-11-20T11:09:57.873Z,0.30
2022-11-20T11:12:29.799Z,0.35
2022-11-20T11:14:59.005Z,0.40
2022-11-20T11:17:31.830Z,0.45
2022-11-20T11:20:04.471Z,0.47
2022-11-20T11:22:33.271Z,0.54
2022-11-20T11:25:00.297Z,0.58
2022-11-20T11:27:26.737Z,0.51
2022-11-20T11:30:12.964Z,0.47
2022-11-20T11:32:39.478Z,0.50
2022-11-20T11:35:19.116Z,0.44
2022-11-20T11:37:48.116Z,0.39
2022-11-20T11:40:30.595Z,0.35
2022-11-20T11:43:05.608Z,0.37
2022-11-20T11:45:32.361Z,0.50
2022-11-20T11:48:04.353Z,0.59
2022-11-20T11:50:32.040Z,0.58
2022-11-20T11:53:14.258Z,0.62
2022-11-20T11:55:48.041Z,0.61
2022-11-20T11:58:41.830Z,0.56
2022-11-20T12:01:35.208Z,0.42
2022-11-20T12:04:11.179Z,0.32
2022-11-20T12:06:43.377Z,0.09
2022-11-20T12:09:12.279Z,-0.01
2022-11-20T12:11:43.960Z,0.06
2022-11-20T12:14:25.104Z,0.11
2022-11-20T12:16:53.813Z,0.20
2022-11-20T12:19:21.059Z,0.18
2022-11-20T12:22:08.571Z,0.24
2022-11-20T12:24:50.877Z,0.27
2022-11-20T12:27:29.502Z,0.17
2022-11-20T12:30:04.700Z,0.22
2022-11-20T12:32:39.941Z,0.14
2022-11-20T12:35:11.272Z,0.02
2022-11-20T12:37:58.356Z,0.13
2022-11-20T12:40:51.498Z,0.18
2022-11-20T12:43:45.836Z,0.20
2022-11-20T12:46:27.770Z,0.24
2022-11-20T12:49:27.115Z,0.24
2022-11-20T12:51:53.641Z,0.08
2022-11-20T12:54:29.449Z,-0.05
2022-11-20T12:57:34.846Z,-0.12
2022-11-20T13:00:08.252Z,-0.17
2022-11-20T13:02:53.085Z,-0.17
2022-11-20T13:05:25.691Z,-0.21
2022-11-20T13:07:54.555Z,-0.24
2022-11-20T13:10:42.495Z,-0.29
2022-11-20T13:13:47.570Z,-0.33
2022-11-20T13:16:47.039Z,-0.46
2022-11-20T13:19:16.723Z,-0.46
2022-11-20T13:21:50.385Z,-0.58
2022-11-20T13:24:20.472Z,-0.55
2022-11-20T13:26:47.990Z,-0.60
2022-11-20T13:29:19.927Z,-0.61
2022-11-20T13:31:49.232Z,-0.58
2022-11-20T13:34:27.078Z,-0.57
2022-11-20T13:36:58.778Z,-0.54
2022-11-20T13:39:26.854Z,-0.50
2022-11-20T13:42:16.317Z,-0.46
2022-11-20T13:44:51.796Z,-0.44
2022-11-20T13:47:21.496Z,-0.51
2022-11-20T13:49:49.352Z,-0.49
2022-11-20T13:52:30.984Z,-0.52
2022-11-20T13:55:03.639Z,-0.53
2022-11-20T13:57:45.054Z,-0.55
2022-11-20T14:00:14.360Z,-0.56
2022-11-20T14:02:41.625Z,-0.59
2022-11-20T14:05:20.332Z,-0.62
2022-11-20T14:07:48.631Z,-0.62
2022-11-20T14:10:32.051Z,-0.65
2022-11-20T14:12:59.739Z,-0.62
2022-11-20T14:15:26.406Z,-0.72
2022-11-20T14:17:52.911Z,-0.72
2022-11-20T14:20:24.156Z,-0.76
2022-11-20T14:22:54.052Z,-0.72
2022-11-20T14:25:31.574Z,-0.70
2022-11-20T14:28:01.396Z,-0.75
2022-11-20T14:30:37.165Z,-0.70
2022-11-20T14:33:05.006Z,-0.71
2022-11-20T14:35:37.901Z,-0.69
2022-11-20T14:38:05.161Z,-0.86
2022-11-20T14:40:37.153Z,-0.91
2022-11-20T14:43:17.372Z,-1.03
2022-11-20T14:45:50.111Z,-1.08
2022-11-20T14:48:16.831Z,-1.15
2022-11-20T14:50:51.932Z,-1.23
2022-11-20T14:53:44.671Z,-1.30
2022-11-20T14:56:12.354Z,-1.37
2022-11-20T14:58:39.477Z,-1.42
2022-11-20T15:01:08.498Z,-1.44
2022-11-20T15:03:37.627Z,-1.52
2022-11-20T15:09:14.090Z,-1.59
2022-11-20T15:11:51.851Z,-1.59
2022-11-20T15:14:18.448Z,-1.62
2022-11-20T15:16:44.988Z,-1.66
2022-11-20T15:19:19.144Z,-1.72
2022-11-20T15:21:45.781Z,-1.77
2022-11-20T15:24:12.214Z,-1.91
2022-11-20T15:26:41.221Z,-2.00
2022-11-20T15:29:19.611Z,-2.09
2022-11-20T15:31:46.595Z,-2.15
2022-11-20T15:34:13.781Z,-2.25
2022-11-20T15:36:41.110Z,-2.28
2022-11-20T15:39:12.032Z,-2.24
2022-11-20T15:41:39.120Z,-2.32
2022-11-20T15:44:05.907Z,-2.38
2022-11-20T15:46:39.327Z,-2.44
2022-11-20T15:49:07.023Z,-2.52
2022-11-20T15:51:38.677Z,-2.60
2022-11-20T15:54:21.424Z,-2.70
2022-11-20T15:56:49.159Z,-2.64
2022-11-20T15:59:16.205Z,-2.54
2022-11-20T16:01:43.025Z,-2.66
2022-11-20T16:04:14.303Z,-2.54
2022-11-20T16:06:41.167Z,-2.46
2022-11-20T16:09:08.389Z,-2.51
2022-11-20T16:11:37.434Z,-2.48
2022-11-20T16:14:23.593Z,-2.42
2022-11-20T16:16:50.671Z,-2.53
2022-11-20T16:19:18.289Z,-2.54
2022-11-20T16:21:45.286Z,-2.61
2022-11-20T16:24:13.744Z,-2.76
2022-11-20T16:26:41.026Z,-2.84
2022-11-20T16:29:07.755Z,-2.76
2022-11-20T16:31:34.743Z,-2.74
2022-11-20T16:34:05.854Z,-2.81
2022-11-20T16:36:36.578Z,-2.96
2022-11-20T16:39:04.411Z,-3.11
2022-11-20T16:41:33.688Z,-3.17
2022-11-20T16:44:02.294Z,-3.22
2022-11-20T16:46:33.091Z,-3.20
2022-11-20T16:49:01.840Z,-3.33
2022-11-20T16:51:30.842Z,-3.32
2022-11-20T16:53:57.769Z,-3.32
2022-11-20T16:56:26.513Z,-3.25
2022-11-20T16:58:55.519Z,-3.36
2022-11-20T17:01:23.714Z,-3.43
2022-11-20T17:04:06.420Z,-3.42
2022-11-20T17:06:35.542Z,-3.53
2022-11-20T17:09:02.360Z,-3.61
2022-11-20T17:11:29.339Z,-3.68
2022-11-20T17:13:56.753Z,-3.74
2022-11-20T17:16:24.991Z,-3.79
2022-11-20T17:18:51.637Z,-3.95
2022-11-20T17:21:19.244Z,-4.12
2022-11-20T17:23:46.875Z,-4.26
2022-11-20T17:26:17.700Z,-4.36
2022-11-20T17:28:46.220Z,-4.41
2022-11-20T17:31:17.427Z,-4.46
2022-11-20T17:33:46.388Z,-4.48
2022-11-20T17:36:16.420Z,-4.51
2022-11-20T17:38:44.529Z,-4.54
2022-11-20T17:41:12.421Z,-4.57
2022-11-20T17:43:39.645Z,-4.58
2022-11-20T17:46:07.918Z,-4.60
2022-11-20T17:48:35.664Z,-4.61
2022-11-20T17:51:03.903Z,-4.64
2022-11-20T17:53:34.694Z,-4.67
2022-11-20T17:56:19.394Z,-4.67
2022-11-20T17:58:45.866Z,-4.71
2022-11-20T18:01:12.411Z,-4.74
2022-11-20T18:03:39.130Z,-4.87
2022-11-20T18:06:17.012Z,-4.98
2022-11-20T18:08:43.630Z,-5.11
2022-11-20T18:11:33.657Z,-5.16
2022-11-20T18:14:20.710Z,-5.19
2022-11-20T18:16:50.769Z,-5.20
2022-11-20T18:19:28.717Z,-5.19
2022-11-20T18:22:00.109Z,-5.20
2022-11-20T18:24:26.650Z,-5.20
2022-11-20T18:26:53.201Z,-5.17
2022-11-20T18:29:19.800Z,-5.18
2022-11-20T18:31:46.514Z,-5.18
2022-11-20T18:34:14.210Z,-5.18
2022-11-20T18:36:42.517Z,-5.19
2022-11-20T18:39:14.130Z,-5.18
2022-11-20T18:41:59.736Z,-5.21
2022-11-20T18:44:49.709Z,-5.20
2022-11-20T18:47:19.082Z,-5.19
2022-11-20T18:49:52.725Z,-5.19
2022-11-20T18:52:26.520Z,-5.22
2022-11-20T18:54:53.799Z,-5.26
2022-11-20T18:57:23.535Z,-5.28
2022-11-20T18:59:50.048Z,-5.31
2022-11-20T19:02:18.837Z,-5.36
2022-11-20T19:04:45.641Z,-5.41
2022-11-20T19:07:13.758Z,-5.46
2022-11-20T19:09:42.144Z,-5.51
2022-11-20T19:12:10.609Z,-5.52
2022-11-20T19:14:37.510Z,-5.55
2022-11-20T19:17:06.369Z,-5.58
2022-11-20T19:19:34.698Z,-5.61
2022-11-20T19:22:01.394Z,-5.61
2022-11-20T19:24:28.429Z,-5.67
2022-11-20T19:26:58.310Z,-5.69
2022-11-20T19:29:25.657Z,-5.72
2022-11-20T19:31:52.656Z,-5.72
2022-11-20T19:34:19.186Z,-5.74
2022-11-20T19:36:46.541Z,-5.74
2022-11-20T19:39:13.358Z,-5.76
2022-11-20T19:41:40.766Z,-5.79
2022-11-20T19:44:11.106Z,-5.85
2022-11-20T19:46:39.275Z,-5.91
2022-11-20T19:49:10.139Z,-5.95
2022-11-20T19:51:38.953Z,-6.00
2022-11-20T19:54:06.408Z,-6.04
2022-11-20T19:56:34.041Z,-6.12
2022-11-20T19:59:01.434Z,-6.12
2022-11-20T20:01:30.760Z,-6.15
2022-11-20T20:04:02.516Z,-6.17
2022-11-20T20:06:29.950Z,-6.18
2022-11-20T20:09:05.454Z,-6.18
2022-11-20T20:11:34.128Z,-6.21
2022-11-20T20:14:02.485Z,-6.23
2022-11-20T20:16:29.485Z,-6.24
2022-11-20T20:19:01.260Z,-6.21
2022-11-20T20:21:31.910Z,-6.22
2022-11-20T20:23:59.258Z,-6.20
2022-11-20T20:26:28.380Z,-6.21
2022-11-20T20:28:55.696Z,-6.18
2022-11-20T20:31:25.295Z,-6.16
2022-11-20T20:33:52.149Z,-6.16
2022-11-20T20:36:20.354Z,-6.10
2022-11-20T20:38:47.296Z,-6.04
2022-11-20T20:41:14.385Z,-5.93
2022-11-20T20:44:00.273Z,-5.84
2022-11-20T20:46:26.822Z,-5.76
2022-11-20T20:48:54.914Z,-5.71
2022-11-20T20:51:22.702Z,-5.61
2022-11-20T20:53:50.038Z,-5.47
2022-11-20T20:56:17.790Z,-5.42
2022-11-20T20:58:44.500Z,-5.36
2022-11-20T21:01:13.713Z,-5.26
2022-11-20T21:03:40.617Z,-5.19
2022-11-20T21:06:09.329Z,-5.09
2022-11-20T21:08:39.965Z,-5.03
2022-11-20T21:11:10.017Z,-4.91
2022-11-20T21:13:37.729Z,-4.84
2022-11-20T21:16:04.708Z,-4.80
2022-11-20T21:18:31.667Z,-4.74
2022-11-20T21:21:16.704Z,-4.65
2022-11-20T21:23:47.052Z,-4.60
2022-11-20T21:26:15.826Z,-4.56
2022-11-20T21:28:42.701Z,-4.50
2022-11-20T21:31:24.979Z,-4.43
2022-11-20T21:33:53.593Z,-4.39
2022-11-20T21:36:27.989Z,-4.32
2022-11-20T21:38:55.534Z,-4.26
2022-11-20T21:41:23.540Z,-4.19
2022-11-20T21:44:23.998Z,-4.13
2022-11-20T21:46:43.573Z,-4.06
2022-11-20T21:49:10.531Z,-4.03
2022-11-20T21:51:37.271Z,-3.99
2022-11-20T21:54:03.846Z,-3.93
2022-11-20T21:56:30.304Z,-3.90
2022-11-20T21:58:56.773Z,-3.86
2022-11-20T22:01:26.604Z,-3.84
2022-11-20T22:03:58.344Z,-3.77
2022-11-20T22:06:27.208Z,-3.73
2022-11-20T22:08:53.678Z,-3.68
2022-11-20T22:11:21.916Z,-3.65
2022-11-20T22:14:07.485Z,-3.61
2022-11-20T22:16:35.154Z,-3.58
2022-11-20T22:19:01.915Z,-3.52
2022-11-20T22:21:30.430Z,-3.50
2022-11-20T22:24:00.494Z,-3.47
2022-11-20T22:26:29.039Z,-3.47
2022-11-20T22:28:57.655Z,-3.41
2022-11-20T22:31:26.962Z,-3.39
2022-11-20T22:33:53.670Z,-3.34
2022-11-20T22:36:22.622Z,-3.32
2022-11-20T22:38:49.300Z,-3.28
2022-11-20T22:41:21.635Z,-3.26
2022-11-20T22:43:53.255Z,-3.21
2022-11-20T22:46:20.372Z,-3.15
2022-11-20T22:48:51.993Z,-3.15
2022-11-20T22:51:21.405Z,-3.12
2022-11-20T22:53:48.916Z,-3.06
2022-11-20T22:56:16.750Z,-3.02
2022-11-20T22:58:45.337Z,-3.03
2022-11-20T23:01:17.339Z,-2.98
2022-11-20T23:03:48.162Z,-2.96
2022-11-20T23:06:16.247Z,-2.90
2022-11-20T23:08:43.115Z,-2.86
2022-11-20T23:11:12.894Z,-2.80
2022-11-20T23:13:39.948Z,-2.76
2022-11-20T23:16:11.270Z,-2.78
2022-11-20T23:18:38.226Z,-2.82
2022-11-20T23:21:09.674Z,-2.82
2022-11-20T23:23:36.498Z,-2.81
2022-11-20T23:26:08.585Z,-2.78
2022-11-20T23:28:35.245Z,-2.75
2022-11-20T23:31:02.689Z,-2.75
2022-11-20T23:33:29.163Z,-2.71
2022-11-20T23:35:56.432Z,-2.70
2022-11-20T23:38:22.954Z,-2.69
2022-11-20T23:40:50.893Z,-2.66
2022-11-20T23:43:19.609Z,-2.65
2022-11-20T23:45:51.307Z,-2.64
2022-11-20T23:48:18.652Z,-2.58
2022-11-20T23:50:45.544Z,-2.55
2022-11-20T23:53:14.238Z,-2.53
2022-11-20T23:55:51.610Z,-2.50
2022-11-20T23:58:18.258Z,-2.49
